Time;durP1;ratioP1;P1;durP2;ratioP2;P2;SDS_P1;SDS_P2;PMS_P1;PMS_P2;Temp;Humidity;BMP_temperature;BMP_pressure;BME280_temperature;BME280_humidity;BME280_pressure;Samples;Min_cycle;Max_cycle;Signal;HPM_P1;HPM_P2
2022/01/27 10:05:14;;;;;;;30.50;12.40;;;;;;;-0.48;81.44;101155.72;1088896;47;20035;-80
2022/01/27 12:26:54;;;;;;;26.42;12.52;;;;;;;1.55;75.81;101029.28;1087263;54;20034;-77
2022/01/27 12:27:59;;;;;;;24.65;14.05;;;;;;;1.51;75.71;101040.88;1087234;54;20038;-77
2022/01/27 12:29:01;;;;;;;21.95;12.82;;;;;;;1.60;75.95;101027.31;1087522;54;20030;-79
2022/01/27 12:30:09;;;;;;;22.67;12.98;;;;;;;1.59;75.74;101030.88;1087167;54;20080;-77
2022/01/27 12:31:11;;;;;;;24.88;13.18;;;;;;;1.61;75.66;101026.38;1086474;54;20042;-77
2022/01/27 12:32:22;;;;;;;28.00;14.93;;;;;;;1.60;75.66;101032.59;1090555;39;20772;-78
2022/01/27 12:33:24;;;;;;;28.80;14.13;;;;;;;1.66;75.47;101027.06;1087539;54;20094;-77
2022/01/27 12:34:37;;;;;;;24.98;13.80;;;;;;;1.68;75.80;101013.81;1087134;54;20034;-77
2022/01/27 12:35:49;;;;;;;28.17;15.23;;;;;;;1.68;75.60;101009.41;1088069;46;20026;-78
2022/01/27 12:37:02;;;;;;;28.00;14.50;;;;;;;1.62;75.35;101014.91;1087331;54;20725;-77
2022/01/27 12:38:11;;;;;;;31.05;14.40;;;;;;;1.67;75.51;101018.25;1087178;54;20046;-77
2022/01/27 12:41:23;;;;;;;25.05;13.45;;;;;;;1.76;75.42;101010.84;1086568;54;20034;-76
2022/01/27 12:42:36;;;;;;;33.17;15.50;;;;;;;1.80;75.40;101012.44;1087445;54;20031;-77
2022/01/27 12:43:42;;;;;;;25.85;13.38;;;;;;;1.91;75.18;101012.00;1087437;54;20086;-77
2022/01/27 12:44:56;;;;;;;29.30;15.05;;;;;;;1.90;74.92;101007.63;1088792;39;20839;-77
2022/01/27 12:46:01;;;;;;;26.10;14.70;;;;;;;2.08;74.97;101011.28;1087530;54;20038;-77
2022/01/27 12:47:12;;;;;;;29.85;13.75;;;;;;;2.02;74.70;101007.13;1087173;54;20034;-78
2022/01/27 12:48:25;;;;;;;25.42;14.05;;;;;;;2.03;74.52;101006.19;1086858;54;20041;-77
2022/01/27 12:49:43;;;;;;;24.13;13.73;;;;;;;2.07;74.45;100989.28;1087889;39;20644;-78
2022/01/27 12:50:52;;;;;;;26.73;14.13;;;;;;;2.06;74.56;100984.94;1087081;54;20030;-77
2022/01/27 12:51:56;;;;;;;30.65;16.73;;;;;;;2.05;74.64;100974.47;1087145;54;20038;-78
2022/01/27 12:53:07;;;;;;;26.60;15.13;;;;;;;1.95;74.81;100974.88;1087461;54;20082;-78
2022/01/27 12:54:09;;;;;;;29.60;16.80;;;;;;;1.95;74.88;100976.63;1086508;54;20038;-78
2022/01/27 12:55:15;;;;;;;27.17;15.23;;;;;;;2.10;74.47;100980.38;1088064;39;20578;-78
2022/01/27 12:56:17;;;;;;;27.35;15.20;;;;;;;2.10;74.52;100978.63;1087399;54;20030;-77
2022/01/27 12:57:25;;;;;;;25.85;15.50;;;;;;;2.06;74.47;100971.75;1086900;54;20097;-78
2022/01/27 12:58:34;;;;;;;24.45;14.77;;;;;;;2.08;74.54;100975.19;1087569;54;20044;-78
2022/01/27 12:59:41;;;;;;;30.27;16.20;;;;;;;2.14;74.66;100979.34;1087522;54;20034;-77
2022/01/27 13:00:47;;;;;;;30.08;15.27;;;;;;;2.21;74.21;100972.88;1087332;54;20031;-77
2022/01/27 13:01:55;;;;;;;25.40;15.43;;;;;;;2.20;74.10;100963.22;1087415;54;20034;-77
2022/01/27 13:03:02;;;;;;;25.77;14.90;;;;;;;2.17;74.24;100958.09;1088465;39;20297;-77
2022/01/27 13:04:04;;;;;;;31.00;16.25;;;;;;;2.14;74.47;100963.50;1087278;54;20030;-78
2022/01/27 13:05:11;;;;;;;29.20;16.08;;;;;;;2.13;74.36;100957.34;1087528;54;20086;-77
2022/01/27 13:06:17;;;;;;;26.10;15.65;;;;;;;2.10;74.52;100962.78;1087453;54;20053;-78
2022/01/27 13:07:22;;;;;;;24.80;15.07;;;;;;;2.14;74.51;100971.44;1086829;54;20026;-79
2022/01/27 13:08:31;;;;;;;27.95;16.55;;;;;;;2.19;74.46;100972.06;1086281;46;20038;-79
2022/01/27 13:09:38;;;;;;;29.48;15.27;;;;;;;2.19;74.60;100958.88;1087165;39;20503;-78
2022/01/27 13:10:48;;;;;;;24.55;15.63;;;;;;;2.21;74.06;100951.75;1086230;54;20074;-79
2022/01/27 13:11:54;;;;;;;29.20;15.10;;;;;;;2.26;74.18;100957.69;1086396;54;20106;-78
2022/01/27 13:13:11;;;;;;;29.88;16.10;;;;;;;2.21;74.13;100954.38;1086667;54;20118;-80
2022/01/27 13:14:15;;;;;;;28.63;15.40;;;;;;;2.22;74.26;100945.56;1086512;54;20036;-80
2022/01/27 13:15:22;;;;;;;28.70;16.25;;;;;;;2.27;74.51;100940.06;1086920;54;20042;-80
2022/01/27 13:16:25;;;;;;;28.27;16.17;;;;;;;2.25;74.02;100940.16;1086879;54;20121;-77
2022/01/27 13:17:44;;;;;;;27.42;15.02;;;;;;;2.30;74.14;100938.13;1087196;54;20035;-77
2022/01/27 13:19:02;;;;;;;28.25;16.15;;;;;;;2.23;74.00;100936.72;1087563;54;20034;-77
2022/01/27 13:20:22;;;;;;;31.77;16.85;;;;;;;2.22;74.58;100929.72;1087195;54;20030;-77
2022/01/27 13:21:29;;;;;;;28.48;15.48;;;;;;;2.20;74.62;100936.84;1087392;54;20094;-77
2022/01/27 13:22:46;;;;;;;30.85;16.27;;;;;;;2.25;74.57;100934.88;1087481;47;20062;-77
2022/01/27 13:24:02;;;;;;;28.45;15.95;;;;;;;2.23;74.55;100926.16;1087267;54;20038;-77
2022/01/27 13:25:05;;;;;;;29.52;15.90;;;;;;;2.27;74.29;100926.88;1087384;54;20030;-77
2022/01/27 13:26:11;;;;;;;25.58;15.60;;;;;;;2.29;74.36;100923.22;1086479;54;20014;-76
2022/01/27 13:27:13;;;;;;;27.90;15.68;;;;;;;2.27;74.22;100934.78;1087237;54;20034;-77
2022/01/27 13:28:21;;;;;;;28.60;15.98;;;;;;;2.34;74.42;100933.56;1089846;39;20720;-78
2022/01/27 13:29:29;;;;;;;30.58;15.98;;;;;;;2.38;74.25;100921.09;1087697;46;20086;-76
2022/01/27 13:30:35;;;;;;;29.77;15.93;;;;;;;2.44;74.27;100918.19;1087280;54;20035;-78
2022/01/27 13:31:39;;;;;;;29.73;16.80;;;;;;;2.41;74.28;100918.31;1087279;54;20027;-77
2022/01/27 13:32:44;;;;;;;27.58;16.40;;;;;;;2.48;74.09;100915.34;1086792;54;20959;-78
2022/01/27 13:33:49;;;;;;;30.55;17.70;;;;;;;2.40;74.33;100914.84;1087244;54;20026;-77
2022/01/27 13:34:51;;;;;;;28.02;16.60;;;;;;;2.41;74.51;100907.78;1087428;54;20015;-79
2022/01/27 13:36:07;;;;;;;27.92;15.27;;;;;;;2.40;74.04;100914.84;1086953;54;20030;-78
2022/01/27 13:37:15;;;;;;;30.00;16.52;;;;;;;2.40;74.17;100911.31;1086990;54;20046;-78
2022/01/27 13:38:21;;;;;;;30.33;16.48;;;;;;;2.45;74.17;100906.72;1087029;54;20102;-78
2022/01/27 13:39:36;;;;;;;25.63;16.13;;;;;;;2.53;74.22;100904.56;1086727;54;20077;-78
2022/01/27 13:41:54;;;;;;;28.15;16.65;;;;;;;2.49;74.05;100910.91;1086965;54;20031;-79
2022/01/27 13:43:00;;;;;;;32.33;16.13;;;;;;;2.50;74.04;100902.06;1087050;54;20038;-79
2022/01/27 13:44:07;;;;;;;28.40;16.02;;;;;;;2.47;74.25;100895.16;1087086;54;20643;-80
2022/01/27 13:45:11;;;;;;;31.95;17.63;;;;;;;2.46;74.07;100896.06;1087727;39;20637;-79
2022/01/27 13:46:40;;;;;;;26.85;15.93;;;;;;;2.59;74.00;100891.06;1087171;54;20030;-79
2022/01/27 13:47:44;;;;;;;27.30;15.93;;;;;;;2.68;73.77;100886.28;1087272;54;20686;-79
2022/01/27 13:48:46;;;;;;;27.27;16.75;;;;;;;2.61;73.98;100894.50;1088711;46;21052;-80
2022/01/27 13:49:51;;;;;;;26.85;16.48;;;;;;;2.59;74.10;100883.16;1087268;54;20031;-80
2022/01/27 13:51:00;;;;;;;26.60;15.55;;;;;;;2.55;74.12;100892.13;1087763;54;20038;-78
2022/01/27 13:52:12;;;;;;;26.27;16.08;;;;;;;2.58;74.16;100878.78;1087550;54;20071;-82
2022/01/27 13:53:13;;;;;;;29.65;15.85;;;;;;;2.62;74.33;100877.72;1089246;47;20124;-79
2022/01/27 13:54:18;;;;;;;28.67;15.90;;;;;;;2.68;74.25;100883.63;1087178;54;20065;-78
2022/01/27 13:55:24;;;;;;;25.13;15.95;;;;;;;2.68;74.34;100883.63;1087582;47;20034;-79
2022/01/27 13:56:36;;;;;;;28.95;16.83;;;;;;;2.60;74.28;100887.50;1092242;39;20744;-78
2022/01/27 13:57:48;;;;;;;28.38;16.67;;;;;;;2.67;74.28;100889.84;1087182;54;21038;-78
2022/01/27 13:59:10;;;;;;;25.27;15.27;;;;;;;2.64;74.22;100894.34;1087348;54;20034;-79
2022/01/27 14:00:21;;;;;;;26.13;15.60;;;;;;;2.57;74.50;100889.44;1087625;54;20031;-80
2022/01/27 14:01:22;;;;;;;24.17;14.43;;;;;;;2.69;74.45;100893.25;1087388;54;20038;-79
2022/01/27 14:02:31;;;;;;;26.00;14.95;;;;;;;2.80;73.98;100898.91;1087554;54;20045;-79
2022/01/27 14:03:45;;;;;;;27.38;15.45;;;;;;;2.84;73.85;100895.16;1087443;54;20091;-80
2022/01/27 14:04:51;;;;;;;26.40;15.20;;;;;;;2.89;73.81;100900.22;1087364;54;20038;-79
2022/01/27 14:06:00;;;;;;;30.20;16.67;;;;;;;2.80;74.06;100901.53;1087465;54;20082;-79
2022/01/27 14:07:05;;;;;;;26.58;15.68;;;;;;;2.83;73.98;100900.53;1087487;54;20075;-79
2022/01/27 14:08:09;;;;;;;24.65;14.82;;;;;;;2.91;73.94;100893.09;1087521;54;20030;-79
2022/01/27 14:09:15;;;;;;;27.58;15.93;;;;;;;2.84;73.92;100889.88;1087490;54;20058;-79
2022/01/27 14:10:22;;;;;;;29.45;16.75;;;;;;;2.84;74.27;100889.03;1087456;54;20031;-79
2022/01/27 14:11:33;;;;;;;28.10;15.60;;;;;;;2.87;73.87;100895.03;1087339;54;20034;-79
2022/01/27 14:12:48;;;;;;;24.98;15.25;;;;;;;2.88;73.87;100888.81;1087532;54;20723;-80
2022/01/27 14:13:58;;;;;;;26.15;14.85;;;;;;;2.92;73.79;100893.03;1087585;54;20057;-79
2022/01/27 14:15:02;;;;;;;28.10;15.13;;;;;;;2.90;74.09;100891.38;1087601;54;20027;-79
2022/01/27 14:16:09;;;;;;;26.23;15.70;;;;;;;2.94;73.87;100885.88;1087696;54;20030;-80
2022/01/27 14:17:18;;;;;;;26.63;14.32;;;;;;;3.01;73.65;100882.94;1087944;54;20015;-79
2022/01/27 14:18:24;;;;;;;28.85;15.52;;;;;;;2.93;74.13;100875.38;1087847;54;20038;-79
2022/01/27 14:19:31;;;;;;;27.52;15.95;;;;;;;2.91;73.97;100864.03;1087826;54;20039;-78
2022/01/27 14:20:36;;;;;;;22.23;13.35;;;;;;;2.99;74.07;100866.31;1090445;31;20765;-80
2022/01/27 14:21:44;;;;;;;24.85;15.52;;;;;;;2.99;73.88;100866.31;1087799;54;20034;-78
2022/01/27 14:22:51;;;;;;;25.05;15.90;;;;;;;2.99;74.14;100861.03;1087787;54;20038;-80
2022/01/27 14:24:11;;;;;;;27.52;16.65;;;;;;;2.95;73.86;100866.44;1087835;54;20034;-79
2022/01/27 14:25:22;;;;;;;24.77;14.85;;;;;;;3.07;73.68;100864.13;1087591;54;20121;-79
2022/01/27 14:26:30;;;;;;;;;;;;;;;3.01;73.77;100869.72;1085499;54;20073;-79
2022/01/27 14:27:33;;;;;;;23.88;14.13;;;;;;;3.09;73.94;100867.56;1084857;54;19942;-80
2022/01/27 14:28:38;;;;;;;23.55;14.95;;;;;;;3.09;73.70;100868.41;1084148;54;20046;-79
2022/01/27 14:29:43;;;;;;;23.05;14.18;;;;;;;3.14;73.81;100867.31;1085069;54;20066;-78
2022/01/27 14:30:48;;;;;;;28.23;14.75;;;;;;;3.08;73.98;100865.84;1084202;54;20051;-80
2022/01/27 14:31:55;;;;;;;24.05;14.02;;;;;;;3.18;73.38;100867.09;1084987;54;20065;-79
2022/01/27 14:33:01;;;;;;;24.42;14.00;;;;;;;3.24;73.43;100869.41;1085373;54;20042;-79
2022/01/27 14:34:05;;;;;;;22.30;13.45;;;;;;;3.33;73.04;100878.69;1087274;39;20814;-79
2022/01/27 14:35:08;;;;;;;24.58;13.43;;;;;;;3.30;73.13;100880.63;1084760;54;20049;-80
2022/01/27 14:36:14;;;;;;;22.80;13.18;;;;;;;3.42;73.31;100886.16;1085704;54;20039;-79
2022/01/27 14:37:15;;;;;;;21.92;13.27;;;;;;;3.43;72.97;100877.28;1086836;46;20119;-79
2022/01/27 14:38:20;;;;;;;22.05;14.02;;;;;;;3.38;73.19;100889.03;1087722;54;20054;-80
2022/01/27 14:39:22;;;;;;;24.40;14.48;;;;;;;3.49;73.02;100881.41;1086194;54;20050;-79
2022/01/27 14:40:28;;;;;;;19.23;12.40;;;;;;;3.57;72.82;100879.22;1085634;54;20035;-79
2022/01/27 14:41:32;;;;;;;20.40;12.63;;;;;;;3.62;72.58;100886.91;1084801;54;20039;-78
2022/01/27 14:42:35;;;;;;;25.63;15.55;;;;;;;3.47;73.13;100885.91;1085060;54;21098;-78
2022/01/27 14:43:40;;;;;;;22.10;13.68;;;;;;;3.51;72.89;100890.09;1084996;54;20038;-79
2022/01/27 14:44:42;;;;;;;22.70;15.23;;;;;;;3.46;73.39;100884.19;1086860;54;20027;-78
2022/01/27 14:45:50;;;;;;;20.23;13.52;;;;;;;3.59;73.15;100890.53;1086557;54;20565;-79
2022/01/27 14:46:58;;;;;;;22.00;12.98;;;;;;;3.65;73.36;100885.91;1086206;54;20931;-80
2022/01/27 14:48:05;;;;;;;20.98;13.50;;;;;;;3.55;73.45;100883.72;1085961;54;20098;-80
2022/01/27 14:49:08;;;;;;;21.75;13.70;;;;;;;3.51;74.13;100882.16;1086034;54;20046;-80
2022/01/27 14:50:15;;;;;;;22.45;13.82;;;;;;;3.44;74.11;100880.78;1086053;54;20038;-79
2022/01/27 14:51:18;;;;;;;21.55;13.45;;;;;;;3.42;74.66;100880.00;1086533;54;20741;-79
2022/01/27 14:52:29;;;;;;;25.75;17.50;;;;;;;3.58;74.31;100880.06;1087902;54;20035;-79
2022/01/27 14:53:33;;;;;;;21.98;14.48;;;;;;;3.59;74.19;100882.63;1087693;54;20042;-78
2022/01/27 14:54:35;;;;;;;22.90;14.15;;;;;;;3.59;74.24;100885.25;1086717;54;20046;-80
2022/01/27 14:55:39;;;;;;;25.10;15.48;;;;;;;3.48;74.59;100879.69;1085719;54;20061;-79
2022/01/27 14:56:42;;;;;;;21.65;13.93;;;;;;;3.48;74.68;100890.28;1085325;54;20631;-80
2022/01/27 14:57:47;;;;;;;25.83;15.52;;;;;;;3.38;74.92;100889.03;1085190;54;20106;-79
2022/01/27 14:58:53;;;;;;;23.42;14.70;;;;;;;3.25;75.50;100884.34;1085470;54;20066;-79
2022/01/27 14:59:57;;;;;;;24.67;14.75;;;;;;;3.14;75.85;100881.38;1085853;54;20073;-80
2022/01/27 15:01:02;;;;;;;24.55;14.98;;;;;;;3.11;76.60;100881.56;1085843;54;20038;-80
2022/01/27 15:02:07;;;;;;;25.83;15.13;;;;;;;3.08;76.85;100884.34;1086568;54;20038;-80
2022/01/27 15:03:12;;;;;;;22.58;14.13;;;;;;;3.12;76.51;100888.53;1086566;54;20030;-79
2022/01/27 15:04:16;;;;;;;22.45;14.30;;;;;;;3.21;76.42;100880.13;1086455;54;20030;-79
2022/01/27 15:05:20;;;;;;;24.92;15.10;;;;;;;3.13;76.98;100887.59;1085388;54;20038;-79
2022/01/27 15:06:26;;;;;;;26.48;16.20;;;;;;;2.97;77.34;100880.44;1084649;54;20054;-78
2022/01/27 15:07:27;;;;;;;24.85;15.60;;;;;;;2.87;78.12;100883.63;1084633;54;20034;-79
2022/01/27 15:08:32;;;;;;;25.40;16.25;;;;;;;2.90;77.99;100892.25;1085659;54;20034;-79
2022/01/27 15:09:36;;;;;;;25.38;15.45;;;;;;;2.96;77.79;100888.44;1086716;54;20041;-80
2022/01/27 15:10:41;;;;;;;24.23;14.30;;;;;;;3.12;77.44;100899.09;1086215;54;20046;-80
2022/01/27 15:11:42;;;;;;;22.00;13.57;;;;;;;3.19;77.20;100900.53;1084774;54;20030;-78
2022/01/27 15:12:46;;;;;;;21.90;12.95;;;;;;;3.30;77.04;100896.50;1084534;54;20035;-79
2022/01/27 15:13:58;;;;;;;18.70;11.77;;;;;;;3.37;76.53;100896.09;1084848;54;20042;-79
2022/01/27 15:19:01;;;;;;;19.10;11.60;;;;;;;3.45;76.60;100918.66;1084838;54;20031;-79
2022/01/27 15:20:05;;;;;;;;;;;;;;;3.27;77.15;100911.56;1085624;54;21219;-80
2022/01/27 15:21:09;;;;;;;24.30;14.90;;;;;;;3.18;77.40;100906.75;1085950;54;20606;-80
2022/01/27 15:22:11;;;;;;;23.67;14.38;;;;;;;3.17;77.23;100899.72;1087304;39;20531;-81
2022/01/27 15:23:19;;;;;;;25.52;15.70;;;;;;;3.14;77.44;100899.88;1086725;54;20034;-80
2022/01/27 15:24:21;;;;;;;22.83;15.38;;;;;;;3.08;77.55;100897.56;1087176;54;20046;-80
2022/01/27 15:25:25;;;;;;;27.92;16.45;;;;;;;2.95;78.00;100902.59;1087297;46;20061;-80
2022/01/27 15:26:31;;;;;;;26.75;15.23;;;;;;;2.97;77.89;100900.72;1086460;39;20447;-80
2022/01/27 15:27:33;;;;;;;24.95;16.02;;;;;;;2.86;78.11;100898.59;1085796;54;20044;-80
2022/01/27 15:28:37;;;;;;;23.75;15.55;;;;;;;2.93;78.15;100886.78;1085482;54;20039;-80
2022/01/27 15:29:42;;;;;;;26.38;15.63;;;;;;;3.07;77.70;100883.47;1085388;54;20042;-80
2022/01/27 15:30:44;;;;;;;24.95;16.25;;;;;;;2.99;77.76;100884.78;1088023;39;20323;-80
2022/01/27 15:31:48;;;;;;;25.80;16.17;;;;;;;2.95;77.45;100882.28;1086200;54;20055;-80
2022/01/27 15:32:52;;;;;;;25.45;16.60;;;;;;;3.09;77.25;100872.84;1085806;54;20038;-80
2022/01/27 15:33:57;;;;;;;25.08;15.30;;;;;;;3.06;77.41;100876.50;1086094;54;20039;-79
2022/01/27 15:34:59;;;;;;;23.85;15.20;;;;;;;3.03;77.28;100883.69;1086006;39;20444;-80
2022/01/27 15:36:05;;;;;;;25.73;16.02;;;;;;;3.01;77.21;100886.41;1086049;39;20483;-80
2022/01/27 15:37:11;;;;;;;28.33;15.25;;;;;;;3.02;77.14;100882.00;1086095;54;20039;-79
2022/01/27 15:38:15;;;;;;;28.33;16.17;;;;;;;2.96;77.01;100881.38;1085884;54;20045;-80
2022/01/27 15:39:22;;;;;;;25.60;14.38;;;;;;;3.04;77.03;100881.00;1086154;54;20034;-79
2022/01/27 15:40:28;;;;;;;23.88;15.10;;;;;;;3.10;76.96;100885.13;1086520;39;20515;-79
2022/01/27 15:41:32;;;;;;;27.05;15.48;;;;;;;3.05;77.22;100876.56;1085709;54;20049;-80
2022/01/27 15:42:33;;;;;;;22.10;14.35;;;;;;;3.06;77.51;100872.97;1086345;39;20514;-79
2022/01/27 15:43:38;;;;;;;22.42;15.63;;;;;;;2.95;77.46;100877.00;1087346;54;20041;-78
2022/01/27 15:44:39;;;;;;;22.60;13.93;;;;;;;2.86;78.16;100877.47;1087052;54;20096;-79
2022/01/27 15:45:43;;;;;;;25.02;16.65;;;;;;;2.91;78.31;100880.75;1087022;54;20039;-81
2022/01/27 15:46:45;;;;;;;22.80;14.65;;;;;;;3.00;78.16;100878.59;1087317;54;20030;-80
2022/01/27 15:47:49;;;;;;;24.33;15.95;;;;;;;3.03;78.00;100888.97;1087779;54;20053;-80
2022/01/27 15:48:56;;;;;;;23.95;15.15;;;;;;;2.97;77.99;100891.00;1087784;54;20430;-80
2022/01/27 15:49:57;;;;;;;21.88;14.38;;;;;;;3.09;78.04;100894.81;1087513;54;20045;-79
2022/01/27 15:51:01;;;;;;;24.13;14.80;;;;;;;3.07;77.96;100898.47;1086553;54;20046;-80
2022/01/27 15:52:06;;;;;;;22.58;15.07;;;;;;;3.10;78.07;100900.97;1087036;46;20556;-80
2022/01/27 15:53:10;;;;;;;23.63;15.27;;;;;;;3.15;77.95;100900.75;1086528;54;20038;-79
2022/01/27 15:54:12;;;;;;;26.23;15.15;;;;;;;3.11;78.17;100892.13;1086749;54;20110;-80
2022/01/27 15:55:17;;;;;;;21.80;14.80;;;;;;;3.13;77.80;100895.53;1086602;54;20045;-79
2022/01/27 15:56:18;;;;;;;26.95;15.10;;;;;;;3.09;77.78;100899.25;1086452;54;20046;-79
2022/01/27 15:57:23;;;;;;;25.67;15.38;;;;;;;3.10;77.97;100896.53;1086538;54;20045;-79
2022/01/27 15:58:27;;;;;;;25.48;16.42;;;;;;;3.08;77.97;100893.09;1086730;54;20042;-79
2022/01/27 15:59:29;;;;;;;22.67;14.68;;;;;;;3.16;77.76;100889.25;1086709;54;20053;-79
2022/01/27 16:00:33;;;;;;;25.98;14.68;;;;;;;3.04;77.77;100883.63;1086633;54;20038;-80
2022/01/27 16:01:38;;;;;;;28.25;16.60;;;;;;;3.11;77.48;100878.91;1086717;54;20046;-79
2022/01/27 16:02:41;;;;;;;21.80;15.48;;;;;;;2.97;77.90;100869.88;1087079;54;20034;-80
2022/01/27 16:03:45;;;;;;;26.90;16.65;;;;;;;2.89;78.15;100872.03;1086800;54;20057;-78
2022/01/27 16:04:52;;;;;;;25.38;15.75;;;;;;;2.85;77.86;100880.19;1086795;54;20045;-79
2022/01/27 16:05:56;;;;;;;21.17;14.35;;;;;;;2.90;77.80;100894.88;1087351;46;20038;-79
2022/01/27 16:07:00;;;;;;;26.40;16.17;;;;;;;2.87;78.07;100889.75;1086737;54;20042;-79
2022/01/27 16:08:05;;;;;;;24.95;15.45;;;;;;;2.88;78.23;100890.59;1086871;46;20043;-80
2022/01/27 16:09:06;;;;;;;25.10;15.65;;;;;;;3.00;78.19;100889.16;1086675;54;20030;-79
2022/01/27 16:10:10;;;;;;;23.73;14.30;;;;;;;3.13;77.65;100890.22;1086652;39;20465;-79
2022/01/27 16:11:15;;;;;;;21.80;13.32;;;;;;;3.18;77.63;100893.53;1086230;47;20026;-79
2022/01/27 16:12:19;;;;;;;27.88;16.08;;;;;;;3.00;78.06;100881.22;1086799;46;20034;-79
2022/01/27 16:13:23;;;;;;;28.83;16.15;;;;;;;2.97;78.04;100879.59;1086360;54;20057;-78
2022/01/27 16:14:26;;;;;;;27.58;17.17;;;;;;;2.89;77.92;100879.97;1086709;54;20061;-79
2022/01/27 16:15:32;;;;;;;25.13;15.48;;;;;;;2.91;77.97;100883.38;1088113;39;20501;-79
2022/01/27 16:16:34;;;;;;;25.00;15.57;;;;;;;2.91;77.92;100883.38;1086550;54;20675;-79
2022/01/27 16:17:39;;;;;;;24.80;15.00;;;;;;;2.94;78.07;100883.22;1089774;46;20081;-80
2022/01/27 16:18:43;;;;;;;25.25;16.30;;;;;;;2.76;78.55;100886.75;1086985;46;20033;-80
2022/01/27 16:19:45;;;;;;;26.48;15.93;;;;;;;2.92;78.42;100882.47;1086399;54;20042;-79
2022/01/27 16:20:51;;;;;;;28.02;17.17;;;;;;;2.76;78.49;100870.91;1086673;54;20042;-79
2022/01/27 16:21:56;;;;;;;24.15;15.55;;;;;;;2.84;78.87;100876.66;1086671;54;20046;-79
2022/01/27 16:22:58;;;;;;;23.35;14.80;;;;;;;2.76;79.48;100882.34;1086857;54;20119;-79
2022/01/27 16:24:03;;;;;;;24.25;15.20;;;;;;;2.87;78.92;100881.81;1086767;54;20049;-79
2022/01/27 16:25:05;;;;;;;27.85;16.52;;;;;;;2.73;79.74;100873.72;1086879;54;20061;-79
2022/01/27 16:26:11;;;;;;;28.58;16.75;;;;;;;2.68;79.85;100875.72;1086622;54;20030;-80
2022/01/27 16:27:12;;;;;;;30.73;17.40;;;;;;;2.64;80.47;100875.00;1086600;39;20653;-80
2022/01/27 16:28:17;;;;;;;24.00;15.60;;;;;;;2.68;80.40;100873.06;1085788;54;20039;-78
2022/01/27 16:29:18;;;;;;;28.88;16.45;;;;;;;2.65;80.60;100871.44;1086437;54;20545;-79
2022/01/27 16:30:23;;;;;;;26.70;16.60;;;;;;;2.63;80.59;100871.53;1086827;54;20069;-79
2022/01/27 16:31:24;;;;;;;26.80;16.02;;;;;;;2.69;80.32;100885.34;1087285;39;20507;-80
2022/01/27 16:32:30;;;;;;;29.27;16.75;;;;;;;2.74;80.43;100881.56;1086838;54;20038;-79
2022/01/27 16:33:31;;;;;;;26.10;15.23;;;;;;;2.77;80.63;100876.13;1087379;39;20429;-80
2022/01/27 16:34:36;;;;;;;28.33;16.60;;;;;;;2.69;80.71;100890.63;1086685;54;20097;-79
2022/01/27 16:35:41;;;;;;;26.35;15.30;;;;;;;2.75;80.78;100887.69;1087182;46;20038;-80
2022/01/27 16:36:45;;;;;;;29.67;17.45;;;;;;;2.64;81.13;100877.66;1086883;54;20035;-79
2022/01/27 16:37:49;;;;;;;27.63;17.10;;;;;;;2.65;81.02;100887.28;1087120;46;20026;-80
2022/01/27 16:38:52;;;;;;;38.42;19.05;;;;;;;2.67;81.30;100888.06;1087730;46;20046;-79
2022/01/27 16:39:56;;;;;;;39.88;19.88;;;;;;;2.74;81.06;100889.47;1086860;54;20077;-78
2022/01/27 16:41:00;;;;;;;38.25;18.70;;;;;;;2.85;80.67;100886.31;1086946;54;20034;-80
2022/01/27 16:42:05;;;;;;;38.30;19.23;;;;;;;2.92;80.55;100893.03;1086799;54;20045;-79
2022/01/27 16:43:13;;;;;;;33.92;16.20;;;;;;;2.79;80.68;100891.91;1086848;47;20053;-79
2022/01/27 16:44:14;;;;;;;30.90;17.42;;;;;;;2.72;81.32;100890.50;1087004;54;20039;-79
2022/01/27 16:45:19;;;;;;;29.80;17.70;;;;;;;2.78;81.17;100892.81;1086506;54;20042;-80
2022/01/27 16:46:21;;;;;;;34.47;17.70;;;;;;;2.85;80.79;100894.22;1088715;46;20591;-78
2022/01/27 16:47:25;;;;;;;32.55;17.23;;;;;;;2.76;81.50;100894.69;1087079;54;20034;-79
2022/01/27 16:48:27;;;;;;;31.25;17.42;;;;;;;2.69;81.65;100891.50;1087191;54;20058;-80
2022/01/27 16:49:31;;;;;;;34.83;18.20;;;;;;;2.81;81.28;100893.53;1086708;54;20426;-79
2022/01/27 16:50:35;;;;;;;37.03;19.60;;;;;;;2.92;81.16;100898.31;1086742;54;20030;-79
2022/01/27 16:51:39;;;;;;;44.95;21.92;;;;;;;2.89;80.86;100900.22;1086767;54;20035;-79
2022/01/27 16:52:46;;;;;;;35.47;18.08;;;;;;;2.95;80.92;100892.84;1086828;54;20042;-79
2022/01/27 16:53:50;;;;;;;28.42;17.38;;;;;;;2.79;81.29;100897.19;1086988;54;20038;-80
2022/01/27 16:54:54;;;;;;;28.58;16.55;;;;;;;2.75;81.75;100895.59;1086985;54;20034;-79
2022/01/27 16:56:00;;;;;;;29.00;16.30;;;;;;;2.91;81.04;100885.16;1087111;46;20015;-79
2022/01/27 16:57:05;;;;;;;29.92;16.88;;;;;;;2.96;80.68;100893.72;1087702;31;20635;-79
2022/01/27 16:58:07;;;;;;;29.30;16.85;;;;;;;3.07;80.48;100896.69;1086853;54;20042;-79
2022/01/27 16:59:11;;;;;;;37.55;18.65;;;;;;;3.08;80.60;100900.19;1086878;54;20061;-80
2022/01/27 17:00:16;;;;;;;34.72;19.35;;;;;;;3.02;80.62;100897.88;1086813;54;20034;-78
2022/01/27 17:01:18;;;;;;;31.75;18.23;;;;;;;2.96;80.86;100899.84;1086863;54;20045;-79
2022/01/27 17:02:22;;;;;;;28.58;17.17;;;;;;;2.87;81.08;100897.66;1087176;46;20038;-79
2022/01/27 17:03:27;;;;;;;30.02;17.38;;;;;;;2.90;81.04;100896.66;1086745;54;20034;-80
2022/01/27 17:04:31;;;;;;;26.85;16.90;;;;;;;2.82;80.74;100897.03;1086758;54;20038;-79
2022/01/27 17:05:33;;;;;;;28.50;18.35;;;;;;;2.90;80.62;100905.44;1086769;54;20053;-79
2022/01/27 17:06:37;;;;;;;42.72;22.50;;;;;;;2.99;80.26;100895.34;1086964;54;20141;-79
2022/01/27 17:07:42;;;;;;;35.80;19.88;;;;;;;3.03;79.91;100910.09;1087020;54;20065;-79
2022/01/27 17:08:49;;;;;;;33.85;18.98;;;;;;;3.01;79.69;100904.91;1086764;54;20056;-79
2022/01/27 17:09:53;;;;;;;32.65;18.67;;;;;;;3.04;79.97;100907.41;1086904;46;20041;-79
2022/01/27 17:10:58;;;;;;;33.60;19.60;;;;;;;3.11;79.70;100908.81;1086752;54;20038;-81
2022/01/27 17:12:02;;;;;;;31.30;17.40;;;;;;;2.89;79.79;100914.31;1090392;39;20469;-81
2022/01/27 17:13:04;;;;;;;30.02;17.25;;;;;;;2.76;80.12;100913.16;1086411;54;20065;-79
2022/01/27 17:14:08;;;;;;;40.85;21.70;;;;;;;2.89;79.86;100914.31;1086631;54;20045;-82
2022/01/27 17:15:10;;;;;;;39.45;20.95;;;;;;;2.93;79.89;100913.19;1088969;39;20260;-80
2022/01/27 17:16:15;;;;;;;35.85;19.02;;;;;;;2.93;79.48;100915.84;1087247;54;20041;-82
2022/01/27 17:17:20;;;;;;;29.13;18.25;;;;;;;3.01;79.34;100906.72;1086873;47;20038;-82
2022/01/27 17:18:25;;;;;;;33.38;18.10;;;;;;;2.81;79.51;100912.03;1088271;46;20038;-80
2022/01/27 17:19:29;;;;;;;34.00;18.80;;;;;;;2.84;79.88;100905.72;1087602;54;20065;-82
2022/01/27 17:20:31;;;;;;;28.73;18.42;;;;;;;2.79;79.79;100911.22;1087594;54;20034;-82
2022/01/27 17:21:37;;;;;;;35.38;20.33;;;;;;;2.88;79.71;100912.59;1087385;54;20060;-82
2022/01/27 17:22:39;;;;;;;34.80;22.35;;;;;;;2.99;79.36;100916.50;1086944;54;20134;-78
2022/01/27 17:23:45;;;;;;;30.25;19.80;;;;;;;3.01;79.39;100902.28;1086982;46;20666;-80
2022/01/27 17:24:52;;;;;;;31.48;18.70;;;;;;;2.77;nan;100917.50;1086246;54;20699;-80
2022/01/27 17:25:53;;;;;;;25.98;17.17;;;;;;;2.59;81.05;100911.34;1086298;54;20115;-79
2022/01/27 17:26:57;;;;;;;27.67;16.77;;;;;;;2.73;80.80;100913.34;1086396;54;20030;-79
2022/01/27 17:27:59;;;;;;;31.10;17.88;;;;;;;2.83;80.68;100914.59;1087170;39;20541;-79
2022/01/27 17:29:03;;;;;;;29.40;19.05;;;;;;;2.61;81.59;100912.97;1085684;54;20023;-80
2022/01/27 17:30:08;;;;;;;29.02;17.52;;;;;;;2.71;81.33;100915.19;1086422;54;20065;-80
2022/01/27 17:31:13;;;;;;;33.40;19.73;;;;;;;2.67;81.68;100917.13;1086024;54;20042;-79
2022/01/27 17:32:17;;;;;;;27.55;17.85;;;;;;;2.80;81.12;100915.59;1087125;54;20046;-80
2022/01/27 17:33:21;;;;;;;29.63;16.65;;;;;;;2.67;81.58;100908.31;1087400;54;21101;-80
2022/01/27 17:34:26;;;;;;;28.30;18.42;;;;;;;2.69;81.60;100902.06;1087732;54;20046;-79